Terminal Aerodrome Forecast
Issued by NWS Sioux Falls, SD

Home | Current Version | Previous Version | Text Only | Print | Product List | Glossary On
Versions: 1 2 3 4 5 6 7 8 9 10 11 12 13 14 15 16 17 18 19 20 21 22 23
000
FTUS43 KFSD 062212 AAC
TAFFSD
TAF AMD
KFSD 062212Z 0622/0718 36017G24KT 2SM FU BKN035
     FM070100 01008KT 2SM FU SKC
     FM071000 01004KT 3SM FU SKC
     FM071400 03009KT 6SM FU SKC=

USA.gov is the U.S. government's official web portal to all federal, state and local government web resources and services.